Time;durP1;ratioP1;P1;durP2;ratioP2;P2;SDS_P1;SDS_P2;PMS_P1;PMS_P2;Temp;Humidity;BMP_temperature;BMP_pressure;BME280_temperature;BME280_humidity;BME280_pressure;Samples;Min_cycle;Max_cycle;Signal;HPM_P1;HPM_P2
2021/11/07 00:00:24;;;;;;;0.77;0.77;;;;;;;9.22;98.90;100823.69;5070458;28;20193;-75
2021/11/07 00:05:31;;;;;;;3.60;1.40;;;;;;;9.22;99.70;100820.97;5071450;28;20194;-75
2021/11/07 00:08:23;;;;;;;1.13;1.13;;;;;;;9.26;99.24;100802.94;5034982;28;1076285;-75
2021/11/07 00:10:54;;;;;;;1.67;1.53;;;;;;;9.21;99.50;100803.78;5071103;28;20228;-75
2021/11/07 00:13:23;;;;;;;1.23;1.13;;;;;;;9.18;100.00;100795.41;5072725;28;20155;-73
2021/11/07 00:15:49;;;;;;;1.57;1.47;;;;;;;9.10;100.00;100782.41;5072224;28;20203;-73
2021/11/07 00:18:25;;;;;;;2.17;1.83;;;;;;;9.05;100.00;100779.75;5072652;28;20214;-72
2021/11/07 00:21:39;;;;;;;1.53;1.23;;;;;;;9.17;100.00;100780.16;5072417;28;20166;-75
2021/11/07 00:23:48;;;;;;;1.00;1.00;;;;;;;9.15;100.00;100768.72;5066171;28;20190;-74
2021/11/07 00:26:30;;;;;;;1.33;1.23;;;;;;;9.15;100.00;100768.72;5072112;28;20162;-74
2021/11/07 00:29:07;;;;;;;1.23;1.10;;;;;;;9.17;100.00;100753.69;5072437;28;20154;-74
2021/11/07 00:31:44;;;;;;;2.40;1.73;;;;;;;9.19;100.00;100800.56;5072087;28;20170;-74
2021/11/07 00:37:10;;;;;;;1.77;1.43;;;;;;;9.17;100.00;100742.00;5071320;28;20684;-74
2021/11/07 00:39:50;;;;;;;1.90;1.00;;;;;;;9.25;100.00;100730.41;5072109;28;20245;-74
2021/11/07 00:42:24;;;;;;;1.97;1.77;;;;;;;9.30;98.62;100737.72;5071735;28;20548;-74
2021/11/07 00:44:59;;;;;;;0.57;0.57;;;;;;;9.30;98.47;100741.25;5071535;28;20158;-74
2021/11/07 00:47:40;;;;;;;1.43;1.33;;;;;;;9.31;98.35;100726.50;5071720;28;20493;-75
2021/11/07 00:50:10;;;;;;;0.40;0.40;;;;;;;9.32;98.15;100725.41;5071888;28;20167;-74
2021/11/07 00:55:17;;;;;;;0.77;0.77;;;;;;;9.29;97.60;100720.56;5071464;28;20166;-74
2021/11/07 00:57:53;;;;;;;1.10;1.07;;;;;;;9.27;98.61;100695.50;5071575;28;20208;-74
2021/11/07 01:03:03;;;;;;;0.63;0.63;;;;;;;9.25;99.33;100695.78;5071925;28;20194;-74
2021/11/07 01:05:33;;;;;;;2.30;1.63;;;;;;;9.27;98.94;100681.88;5071257;28;20171;-74
2021/11/07 01:07:59;;;;;;;4.50;0.70;;;;;;;9.27;99.77;100691.97;5071435;28;20277;-74
2021/11/07 01:10:26;;;;;;;1.00;1.00;;;;;;;9.24;100.00;100671.53;5071427;28;20246;-74
2021/11/07 01:12:53;;;;;;;0.53;0.53;;;;;;;9.23;100.00;100678.91;5070181;28;20693;-74
2021/11/07 01:15:19;;;;;;;0.50;0.50;;;;;;;9.25;100.00;100684.88;5071091;28;20648;-74
2021/11/07 01:17:44;;;;;;;1.23;1.10;;;;;;;9.27;100.00;100659.25;5071275;28;20206;-75
2021/11/07 01:20:12;;;;;;;0.97;0.77;;;;;;;9.27;100.00;100703.69;5069969;28;20186;-75
2021/11/07 01:25:22;;;;;;;0.77;0.73;;;;;;;9.22;100.00;100650.03;5071356;28;20213;-74
2021/11/07 01:27:48;;;;;;;2.40;2.20;;;;;;;9.20;100.00;100645.97;5071299;28;20233;-75
2021/11/07 01:30:20;;;;;;;1.07;0.27;;;;;;;9.21;100.00;100644.88;5071626;28;20177;-74
2021/11/07 01:32:52;;;;;;;0.60;0.60;;;;;;;9.21;100.00;100655.78;5071418;28;20171;-74
2021/11/07 01:35:22;;;;;;;0.60;0.60;;;;;;;9.19;100.00;100639.72;5071021;28;20389;-74
2021/11/07 01:38:09;;;;;;;0.40;0.40;;;;;;;9.19;100.00;100638.91;5072532;28;20595;-75
2021/11/07 01:40:58;;;;;;;1.07;0.90;;;;;;;9.14;100.00;100628.91;5073505;28;20197;-75
2021/11/07 01:43:23;;;;;;;0.10;0.10;;;;;;;9.08;100.00;100605.56;5071655;28;20174;-76
2021/11/07 01:46:01;;;;;;;0.50;0.50;;;;;;;9.08;100.00;100616.44;5071012;28;20178;-76
2021/11/07 01:48:29;;;;;;;1.20;0.77;;;;;;;9.15;100.00;100610.63;5069614;28;20174;-75
2021/11/07 01:51:00;;;;;;;11.43;0.90;;;;;;;9.18;100.00;100596.41;5070952;28;20181;-75
2021/11/07 01:53:32;;;;;;;0.17;0.17;;;;;;;9.20;100.00;100605.91;5070992;28;20753;-75
2021/11/07 01:56:02;;;;;;;0.70;0.70;;;;;;;9.17;100.00;100609.22;5071113;28;20246;-75
2021/11/07 01:58:29;;;;;;;0.43;0.43;;;;;;;9.14;100.00;100600.84;5070848;28;20272;-76
2021/11/07 02:00:55;;;;;;;4.63;0.43;;;;;;;9.09;100.00;100581.84;5069459;28;20633;-76
2021/11/07 02:03:22;;;;;;;0.20;0.20;;;;;;;9.01;100.00;100586.06;5070807;28;20193;-76
2021/11/07 02:05:48;;;;;;;0.37;0.37;;;;;;;8.97;100.00;100587.78;5070702;28;20235;-76
2021/11/07 02:08:14;;;;;;;0.20;0.20;;;;;;;8.92;100.00;100568.75;5070657;28;20194;-76
2021/11/07 02:10:41;;;;;;;0.60;0.60;;;;;;;8.95;100.00;100576.31;5070575;28;20193;-76
2021/11/07 02:13:07;;;;;;;0.47;0.43;;;;;;;8.95;100.00;100581.78;5070743;28;20182;-75
2021/11/07 02:15:33;;;;;;;1.87;0.57;;;;;;;8.93;100.00;100552.09;5070531;28;20536;-76
2021/11/07 02:17:58;;;;;;;0.70;0.70;;;;;;;8.97;100.00;100544.16;5070614;28;20212;-76
2021/11/07 02:20:31;;;;;;;0.20;0.20;;;;;;;9.00;100.00;100548.22;5070994;28;20177;-75
2021/11/07 02:22:59;;;;;;;5.17;1.57;;;;;;;9.01;100.00;100536.19;5069244;28;20178;-76
2021/11/07 02:25:26;;;;;;;0.40;0.40;;;;;;;9.00;100.00;100532.66;5070360;28;20265;-76
2021/11/07 02:27:52;;;;;;;0.87;0.40;;;;;;;9.01;100.00;100533.47;5071075;28;20212;-75
2021/11/07 02:30:18;;;;;;;0.20;0.20;;;;;;;8.94;100.00;100523.75;5070641;28;20803;-76
2021/11/07 02:32:45;;;;;;;0.27;0.27;;;;;;;8.88;100.00;100524.16;5070926;28;20526;-75
2021/11/07 02:35:11;;;;;;;0.30;0.30;;;;;;;8.83;100.00;100513.34;5070722;28;20179;-76
2021/11/07 02:37:38;;;;;;;0.43;0.43;;;;;;;8.79;100.00;100502.22;5070480;28;20198;-75
2021/11/07 02:40:07;;;;;;;0.07;0.07;;;;;;;8.75;100.00;100500.38;5070926;28;20174;-75
2021/11/07 02:42:35;;;;;;;0.30;0.30;;;;;;;8.73;100.00;100489.78;5070424;28;20544;-75
2021/11/07 02:45:02;;;;;;;0.33;0.30;;;;;;;8.72;100.00;100495.53;5070294;28;20174;-75
2021/11/07 02:47:27;;;;;;;0.20;0.20;;;;;;;8.66;100.00;100481.19;5070424;28;20634;-75
2021/11/07 02:49:52;;;;;;;0.27;0.20;;;;;;;8.64;100.00;100491.56;5070466;28;20220;-76
2021/11/07 02:52:18;;;;;;;0.10;0.00;;;;;;;8.61;100.00;100498.41;5070313;28;20189;-75
2021/11/07 02:54:43;;;;;;;0.20;0.20;;;;;;;8.60;100.00;100482.38;5070308;28;20202;-76
2021/11/07 02:57:12;;;;;;;0.60;0.60;;;;;;;8.60;100.00;100472.31;5068911;28;20817;-75
2021/11/07 02:59:40;;;;;;;0.10;0.10;;;;;;;8.59;100.00;100481.56;5070775;28;20170;-75
2021/11/07 03:02:06;;;;;;;0.13;0.13;;;;;;;8.61;100.00;100482.09;5074136;28;20224;-76
2021/11/07 03:04:32;;;;;;;0.13;0.13;;;;;;;8.61;100.00;100463.03;5073812;28;20676;-74
2021/11/07 03:06:59;;;;;;;0.40;0.40;;;;;;;8.61;100.00;100484.81;5072295;28;20198;-75
2021/11/07 03:09:30;;;;;;;0.23;0.23;;;;;;;8.65;100.00;100463.22;5073714;28;20170;-74
2021/11/07 03:11:56;;;;;;;0.33;0.33;;;;;;;8.67;100.00;100454.75;5073890;28;20198;-74
2021/11/07 03:14:32;;;;;;;0.50;0.30;;;;;;;8.64;100.00;100461.63;5073771;28;20209;-75
2021/11/07 03:16:58;;;;;;;0.23;0.23;;;;;;;8.63;100.00;100463.53;5073751;28;20717;-74
2021/11/07 03:19:26;;;;;;;0.00;0.00;;;;;;;8.67;100.00;100474.63;5073848;28;20174;-74
2021/11/07 03:21:56;;;;;;;0.20;0.20;;;;;;;8.70;100.00;100459.63;5073332;28;20190;-74
2021/11/07 03:24:23;;;;;;;0.30;0.30;;;;;;;8.72;100.00;100441.06;5073382;28;20220;-73
2021/11/07 03:26:49;;;;;;;0.23;0.23;;;;;;;8.75;100.00;100445.91;5073620;28;20180;-74
2021/11/07 03:29:16;;;;;;;1.83;0.43;;;;;;;8.76;100.00;100448.34;5073235;28;20178;-74
2021/11/07 03:34:25;;;;;;;0.00;0.00;;;;;;;8.79;100.00;100446.94;5073460;28;20632;-74
2021/11/07 03:36:54;;;;;;;0.30;0.30;;;;;;;8.80;100.00;100452.06;5073174;28;20198;-74
2021/11/07 03:39:21;;;;;;;0.13;0.13;;;;;;;8.86;100.00;100448.16;5073224;28;20171;-74
2021/11/07 03:41:47;;;;;;;0.20;0.20;;;;;;;8.89;100.00;100449.47;5073312;28;20174;-74
2021/11/07 03:44:14;;;;;;;0.10;0.10;;;;;;;8.91;100.00;100464.41;5072897;28;20656;-74
2021/11/07 03:46:42;;;;;;;0.00;0.00;;;;;;;8.88;100.00;100437.78;5073153;28;20178;-74
2021/11/07 03:49:09;;;;;;;0.23;0.23;;;;;;;8.88;100.00;100440.50;5071745;28;20619;-73
2021/11/07 03:51:35;;;;;;;0.10;0.10;;;;;;;8.81;100.00;100439.25;5072881;28;20181;-74
2021/11/07 03:54:03;;;;;;;0.53;0.10;;;;;;;8.75;100.00;100430.38;5072758;28;20220;-73
2021/11/07 03:56:28;;;;;;;0.23;0.23;;;;;;;8.77;100.00;100425.44;5073023;28;20652;-74
2021/11/07 03:58:54;;;;;;;10.27;0.40;;;;;;;8.80;100.00;100497.56;5071598;28;20174;-73
2021/11/07 04:01:20;;;;;;;0.43;0.30;;;;;;;8.83;100.00;100423.44;5072829;28;20182;-74
2021/11/07 04:03:46;;;;;;;0.20;0.20;;;;;;;8.84;100.00;100423.13;5072515;28;20184;-74
2021/11/07 04:06:12;;;;;;;0.20;0.20;;;;;;;8.85;100.00;100421.22;5072720;28;20245;-74
2021/11/07 04:08:39;;;;;;;0.10;0.10;;;;;;;8.83;100.00;100442.53;5072471;28;20179;-74
2021/11/07 04:11:04;;;;;;;0.37;0.37;;;;;;;8.82;100.00;100421.81;5072030;28;20199;-74
2021/11/07 04:13:31;;;;;;;0.30;0.30;;;;;;;8.86;100.00;100423.66;5070745;28;20214;-74
2021/11/07 04:15:56;;;;;;;0.47;0.47;;;;;;;8.90;100.00;100418.41;5072158;28;20174;-74
2021/11/07 04:18:22;;;;;;;0.73;0.73;;;;;;;8.85;100.00;100410.34;5072376;28;20256;-73
2021/11/07 04:20:47;;;;;;;0.90;0.90;;;;;;;8.83;100.00;100413.34;5072345;28;20175;-73
2021/11/07 04:23:13;;;;;;;0.20;0.20;;;;;;;8.84;100.00;100406.00;5072217;28;20181;-73
2021/11/07 04:25:39;;;;;;;0.30;0.30;;;;;;;8.85;100.00;100408.41;5072143;28;20258;-74
2021/11/07 04:28:04;;;;;;;1.37;0.43;;;;;;;8.90;100.00;100408.31;5072205;28;20755;-74
2021/11/07 04:30:30;;;;;;;0.00;0.00;;;;;;;8.92;100.00;100403.34;5072297;28;20185;-74
2021/11/07 04:32:55;;;;;;;0.20;0.20;;;;;;;8.93;100.00;100399.53;5072379;28;20648;-74
2021/11/07 04:35:21;;;;;;;0.50;0.50;;;;;;;8.92;100.00;100391.66;5072006;28;20170;-73
2021/11/07 04:37:46;;;;;;;0.30;0.30;;;;;;;8.91;100.00;100404.47;5072087;28;20206;-74
2021/11/07 04:40:14;;;;;;;0.57;0.30;;;;;;;8.91;100.00;100409.13;5072045;28;20253;-73
2021/11/07 04:42:41;;;;;;;0.20;0.20;;;;;;;8.89;100.00;100420.31;5071744;28;20205;-73
2021/11/07 04:45:07;;;;;;;0.33;0.33;;;;;;;8.90;100.00;100410.22;5071728;28;20634;-74
2021/11/07 04:47:32;;;;;;;0.10;0.10;;;;;;;8.85;100.00;100402.97;5071911;28;20185;-74
2021/11/07 04:49:57;;;;;;;0.50;0.50;;;;;;;8.80;100.00;100419.38;5071934;28;20257;-74
2021/11/07 04:52:23;;;;;;;0.30;0.30;;;;;;;8.75;100.00;100402.34;5071677;28;20598;-74
2021/11/07 04:54:48;;;;;;;0.47;0.37;;;;;;;8.71;100.00;100414.94;5071890;28;20236;-74
2021/11/07 04:57:13;;;;;;;0.20;0.20;;;;;;;8.73;100.00;100410.00;5071665;28;20217;-74
2021/11/07 04:59:39;;;;;;;0.80;0.30;;;;;;;8.71;100.00;100409.50;5070302;28;20227;-74
2021/11/07 05:02:04;;;;;;;1.00;0.90;;;;;;;8.69;100.00;100409.78;5071558;28;20215;-74
2021/11/07 05:04:30;;;;;;;0.83;0.77;;;;;;;8.67;100.00;100406.53;5071530;28;20664;-75
2021/11/07 05:06:56;;;;;;;0.83;0.83;;;;;;;8.62;100.00;100407.44;5071538;28;20187;-73
2021/11/07 05:09:22;;;;;;;0.10;0.10;;;;;;;8.59;100.00;100408.06;5071579;28;20197;-74
2021/11/07 05:11:48;;;;;;;0.40;0.40;;;;;;;8.59;100.00;100399.06;5071444;28;20206;-75
2021/11/07 05:14:14;;;;;;;0.73;0.73;;;;;;;8.57;100.00;100398.56;5071331;28;20258;-74
2021/11/07 05:16:39;;;;;;;1.03;1.03;;;;;;;8.54;100.00;100402.69;5071290;28;20646;-75
2021/11/07 05:19:05;;;;;;;1.10;1.00;;;;;;;8.49;100.00;100401.97;5071453;28;20193;-75
2021/11/07 05:21:30;;;;;;;1.53;1.43;;;;;;;8.47;100.00;100402.25;5071444;28;20245;-73
2021/11/07 05:23:56;;;;;;;0.80;0.80;;;;;;;8.44;100.00;100386.53;5070566;28;20542;-74
2021/11/07 05:26:22;;;;;;;0.80;0.80;;;;;;;8.41;100.00;100392.56;5071279;28;20637;-74
2021/11/07 05:28:51;;;;;;;1.90;1.37;;;;;;;8.40;100.00;100385.53;5071314;28;20173;-75
2021/11/07 05:31:18;;;;;;;1.20;1.03;;;;;;;8.41;100.00;100386.34;5071368;28;20253;-75
2021/11/07 05:33:43;;;;;;;0.90;0.70;;;;;;;8.39;100.00;100383.06;5071027;28;20468;-74
2021/11/07 05:36:10;;;;;;;0.60;0.60;;;;;;;8.40;100.00;100380.06;5069825;28;20538;-76
2021/11/07 05:38:35;;;;;;;1.90;1.77;;;;;;;8.44;100.00;100385.72;5071090;28;20198;-74
2021/11/07 05:41:01;;;;;;;1.07;1.07;;;;;;;8.45;100.00;100381.91;5071118;28;20173;-75
2021/11/07 05:43:26;;;;;;;0.83;0.73;;;;;;;8.49;100.00;100369.28;5069691;28;20659;-75
2021/11/07 05:45:52;;;;;;;1.60;1.50;;;;;;;8.54;100.00;100380.13;5071018;28;20171;-75
2021/11/07 05:48:18;;;;;;;1.20;1.10;;;;;;;8.53;100.00;100357.50;5069700;28;20206;-75
2021/11/07 05:50:44;;;;;;;1.50;1.40;;;;;;;8.52;100.00;100360.53;5071069;28;20257;-76
2021/11/07 05:53:10;;;;;;;1.90;1.80;;;;;;;8.53;100.00;100345.78;5070905;28;20174;-74
2021/11/07 05:55:36;;;;;;;0.60;0.60;;;;;;;8.52;100.00;100352.34;5070626;28;20181;-74
2021/11/07 05:58:02;;;;;;;1.73;1.63;;;;;;;8.56;100.00;100350.66;5070798;28;20198;-74
2021/11/07 06:00:28;;;;;;;2.40;0.97;;;;;;;8.58;100.00;100351.16;5071086;28;20529;-75
2021/11/07 06:02:54;;;;;;;0.70;0.70;;;;;;;8.57;100.00;100363.16;5070920;28;20173;-75
2021/11/07 06:05:19;;;;;;;1.77;1.67;;;;;;;8.53;100.00;100349.31;5070663;28;20174;-74
2021/11/07 06:07:45;;;;;;;1.07;1.07;;;;;;;8.54;100.00;100350.16;5070699;28;20184;-74
2021/11/07 06:10:11;;;;;;;1.47;0.73;;;;;;;8.54;100.00;100344.72;5070949;28;20551;-76
2021/11/07 06:12:37;;;;;;;0.87;0.87;;;;;;;8.57;100.00;100344.09;5070931;28;20171;-73
2021/11/07 06:15:03;;;;;;;3.53;1.10;;;;;;;8.62;100.00;100336.63;5070515;28;20193;-76
2021/11/07 06:17:28;;;;;;;2.47;1.50;;;;;;;8.68;100.00;100339.25;5070638;28;20209;-74
2021/11/07 06:19:54;;;;;;;1.07;1.07;;;;;;;8.77;100.00;100349.16;5070638;28;20257;-74
2021/11/07 06:22:19;;;;;;;1.03;0.90;;;;;;;8.75;100.00;100339.69;5070663;28;20373;-74
2021/11/07 06:24:45;;;;;;;0.60;0.60;;;;;;;8.74;100.00;100346.25;5070554;28;20181;-74
2021/11/07 06:27:10;;;;;;;1.23;0.60;;;;;;;8.73;100.00;100359.06;5070795;28;20182;-74
2021/11/07 06:29:38;;;;;;;0.50;0.50;;;;;;;8.72;100.00;100365.63;5070731;28;20630;-74
2021/11/07 06:32:04;;;;;;;0.40;0.40;;;;;;;8.70;100.00;100351.50;5070715;28;20282;-75
2021/11/07 06:34:29;;;;;;;3.43;0.73;;;;;;;8.64;100.00;100347.22;5070604;28;20721;-74
2021/11/07 06:36:55;;;;;;;0.60;0.60;;;;;;;8.59;100.00;100345.41;5074476;28;20198;-74
2021/11/07 06:39:20;;;;;;;0.33;0.33;;;;;;;8.49;100.00;100355.69;5074482;28;20170;-74
2021/11/07 06:41:46;;;;;;;0.40;0.40;;;;;;;8.43;100.00;100365.88;5074473;28;20181;-74
2021/11/07 06:44:13;;;;;;;0.53;0.53;;;;;;;8.34;100.00;100376.63;5074435;28;20622;-74
2021/11/07 06:46:39;;;;;;;0.20;0.10;;;;;;;8.29;100.00;100371.25;5072989;28;20554;-75
2021/11/07 06:49:10;;;;;;;2.37;0.97;;;;;;;8.24;100.00;100373.22;5074279;28;20178;-75
2021/11/07 06:51:38;;;;;;;0.60;0.60;;;;;;;8.20;100.00;100367.56;5074206;28;20179;-76
2021/11/07 06:54:03;;;;;;;6.80;0.53;;;;;;;8.17;100.00;100368.16;5074268;28;20577;-75
2021/11/07 06:56:29;;;;;;;0.10;0.10;;;;;;;8.16;100.00;100366.56;5074138;28;20210;-74
2021/11/07 06:58:56;;;;;;;0.20;0.20;;;;;;;8.16;100.00;100358.38;5074155;28;20536;-74
2021/11/07 07:01:22;;;;;;;0.13;0.13;;;;;;;8.16;100.00;100363.03;5074010;28;20186;-74
2021/11/07 07:03:47;;;;;;;0.47;0.47;;;;;;;8.19;100.00;100362.41;5073935;28;20227;-75
2021/11/07 07:06:13;;;;;;;0.20;0.20;;;;;;;8.20;100.00;100372.19;5073813;28;20253;-74
2021/11/07 07:08:44;;;;;;;0.47;0.43;;;;;;;8.21;100.00;100380.06;5074042;28;20201;-74
2021/11/07 07:11:12;;;;;;;1.03;1.03;;;;;;;8.27;100.00;100381.63;5074272;28;20159;-74
2021/11/07 07:19:00;;;;;;;0.47;0.47;;;;;;;8.41;100.00;100378.97;5073929;28;20159;-73
2021/11/07 07:21:38;;;;;;;3.57;0.93;;;;;;;8.49;100.00;100393.78;5072783;28;20159;-72
2021/11/07 07:34:29;;;;;;;4.73;0.83;;;;;;;8.72;100.00;100387.41;5073867;28;20177;-75
2021/11/07 07:36:55;;;;;;;1.93;1.83;;;;;;;8.72;100.00;100368.34;5073632;28;20549;-76
2021/11/07 07:39:21;;;;;;;0.20;0.20;;;;;;;8.74;100.00;100379.72;5073451;28;20201;-75
2021/11/07 07:41:47;;;;;;;0.90;0.90;;;;;;;8.77;100.00;100386.50;5073200;28;20173;-76
2021/11/07 07:44:14;;;;;;;0.93;0.93;;;;;;;8.80;100.00;100377.72;5071813;28;20257;-75
2021/11/07 07:46:43;;;;;;;0.57;0.57;;;;;;;8.82;100.00;100373.56;5072943;28;20179;-75
2021/11/07 07:49:12;;;;;;;0.63;0.63;;;;;;;8.85;100.00;100377.63;5070662;28;20368;-75
2021/11/07 07:51:38;;;;;;;0.97;0.90;;;;;;;8.87;100.00;100370.78;5070498;28;20217;-75
2021/11/07 07:54:05;;;;;;;1.37;1.27;;;;;;;8.85;100.00;100383.09;5072956;28;20255;-76
2021/11/07 07:56:31;;;;;;;0.47;0.47;;;;;;;8.87;100.00;100381.66;5072999;28;20173;-75
2021/11/07 07:58:56;;;;;;;0.17;0.17;;;;;;;8.84;100.00;100367.84;5072790;28;20179;-76
2021/11/07 08:01:23;;;;;;;1.10;1.00;;;;;;;8.81;100.00;100373.88;5072936;28;20175;-75
2021/11/07 08:03:49;;;;;;;0.73;0.70;;;;;;;8.83;100.00;100372.50;5073056;28;20186;-75
2021/11/07 08:06:15;;;;;;;1.20;1.10;;;;;;;8.79;100.00;100368.72;5072769;28;20183;-75
2021/11/07 08:08:40;;;;;;;1.03;0.77;;;;;;;8.77;100.00;100379.13;5072813;28;20173;-75
2021/11/07 08:11:06;;;;;;;0.50;0.50;;;;;;;8.74;100.00;100374.28;5072654;28;20174;-76
2021/11/07 08:13:32;;;;;;;2.17;0.73;;;;;;;8.73;100.00;100364.50;5072405;28;20181;-75
2021/11/07 08:15:57;;;;;;;0.97;0.87;;;;;;;8.76;100.00;100363.09;5071167;28;20197;-76
2021/11/07 08:18:23;;;;;;;1.93;1.40;;;;;;;8.79;100.00;100359.75;5071990;28;20203;-75
2021/11/07 08:20:49;;;;;;;3.70;0.70;;;;;;;8.84;100.00;100340.59;5072590;28;20539;-75
2021/11/07 08:23:15;;;;;;;1.90;1.80;;;;;;;8.87;100.00;100375.41;5072972;28;20174;-75
2021/11/07 08:25:41;;;;;;;2.07;1.40;;;;;;;8.91;100.00;100358.16;5073542;28;20506;-76
2021/11/07 08:28:07;;;;;;;11.40;1.67;;;;;;;8.98;100.00;100367.88;5072086;28;20216;-76
2021/11/07 08:30:35;;;;;;;1.63;1.53;;;;;;;9.03;100.00;100379.47;5070892;28;20381;-75
2021/11/07 08:33:01;;;;;;;1.73;1.63;;;;;;;9.10;100.00;100368.13;5072212;28;20162;-75
2021/11/07 08:35:27;;;;;;;1.30;1.23;;;;;;;9.15;100.00;100359.88;5072105;28;20203;-75
2021/11/07 08:38:01;;;;;;;0.77;0.77;;;;;;;9.17;100.00;100363.91;5071993;28;20233;-75
2021/11/07 08:40:34;;;;;;;1.50;1.13;;;;;;;9.23;100.00;100375.50;5071901;28;20248;-75
2021/11/07 08:54:28;;;;;;;2.50;2.07;;;;;;;9.25;100.00;100359.66;5072329;28;20610;-75
2021/11/07 09:02:37;;;;;;;2.90;1.00;;;;;;;9.44;100.00;100373.19;5072633;28;20177;-79
2021/11/07 09:05:09;;;;;;;1.47;0.60;;;;;;;9.42;100.00;100375.41;5071719;28;20171;-74
2021/11/07 09:10:27;;;;;;;0.60;0.60;;;;;;;9.42;100.00;100373.47;5071741;28;20194;-74
2021/11/07 09:12:52;;;;;;;1.30;1.20;;;;;;;9.42;100.00;100375.41;5071497;28;20174;-74
2021/11/07 09:15:21;;;;;;;0.40;0.40;;;;;;;9.43;100.00;100377.81;5071640;28;20171;-74
2021/11/07 09:17:47;;;;;;;3.50;0.93;;;;;;;9.46;100.00;100381.84;5071625;28;20202;-74
2021/11/07 09:20:26;;;;;;;0.93;0.80;;;;;;;9.45;100.00;100397.41;5071652;28;20261;-74
2021/11/07 09:22:58;;;;;;;1.43;1.13;;;;;;;9.47;100.00;100384.28;5071610;28;20205;-75
2021/11/07 09:25:32;;;;;;;4.53;1.70;;;;;;;9.49;100.00;100390.22;5071581;28;20182;-74
2021/11/07 09:28:46;;;;;;;3.73;1.27;;;;;;;9.57;100.00;100385.19;5071485;28;20197;-75
2021/11/07 09:30:57;;;;;;;4.80;0.70;;;;;;;9.65;100.00;100393.44;5060366;28;20190;-75
2021/11/07 09:38:40;;;;;;;1.47;1.20;;;;;;;9.72;100.00;100393.84;5071074;28;20206;-74
2021/11/07 09:41:15;;;;;;;0.50;0.50;;;;;;;9.67;100.00;100393.94;5071293;28;20512;-75
2021/11/07 09:48:35;;;;;;;3.13;1.10;;;;;;;9.56;100.00;100397.22;5071229;28;20660;-74
2021/11/07 09:51:01;;;;;;;1.37;0.77;;;;;;;9.57;100.00;100401.53;5070806;28;20163;-74
2021/11/07 09:53:26;;;;;;;0.67;0.53;;;;;;;9.59;100.00;100410.22;5071079;28;20162;-75
2021/11/07 09:55:53;;;;;;;2.73;1.40;;;;;;;9.56;100.00;100403.47;5070705;28;20174;-74
2021/11/07 09:58:18;;;;;;;1.80;0.97;;;;;;;9.57;100.00;100402.34;5070700;28;20284;-75
2021/11/07 10:00:48;;;;;;;11.50;2.77;;;;;;;9.56;99.68;100414.38;5068084;28;20581;-74
2021/11/07 10:03:15;;;;;;;1.93;1.50;;;;;;;9.55;99.81;100420.94;5062180;28;20744;-74
2021/11/07 10:05:44;;;;;;;1.60;0.43;;;;;;;9.52;100.00;100429.72;5070409;28;20261;-74
2021/11/07 10:08:11;;;;;;;1.80;0.73;;;;;;;9.52;100.00;100419.59;5070523;28;20190;-74
2021/11/07 10:10:45;;;;;;;12.37;2.23;;;;;;;9.49;100.00;100422.16;5074391;28;20174;-75
2021/11/07 10:13:23;;;;;;;0.97;0.93;;;;;;;9.46;100.00;100418.13;5074780;28;20254;-74
2021/11/07 10:16:07;;;;;;;1.60;0.90;;;;;;;9.42;100.00;100419.03;5073451;28;20850;-75
2021/11/07 10:19:01;;;;;;;17.07;1.40;;;;;;;9.39;100.00;100417.69;5074658;28;20285;-74
2021/11/07 10:21:33;;;;;;;1.30;0.63;;;;;;;9.37;98.89;100411.75;5074778;28;20174;-74
2021/11/07 10:24:13;;;;;;;1.23;1.23;;;;;;;9.35;98.21;100418.63;5074229;28;20544;-75
2021/11/07 10:26:41;;;;;;;2.70;1.20;;;;;;;9.34;97.91;100414.28;5074609;28;20286;-74
2021/11/07 10:29:11;;;;;;;1.17;1.13;;;;;;;9.33;97.29;100408.03;5074540;28;20503;-74
2021/11/07 10:31:45;;;;;;;2.90;1.03;;;;;;;9.32;97.24;100402.88;5074439;28;20629;-74
2021/11/07 10:42:52;;;;;;;0.63;0.40;;;;;;;9.34;95.57;100404.19;5074166;28;20179;-75
2021/11/07 10:45:41;;;;;;;1.07;0.77;;;;;;;9.34;94.44;100401.47;5074254;28;20178;-74
2021/11/07 10:53:30;;;;;;;2.50;0.60;;;;;;;9.23;95.12;100384.50;5042426;28;20205;-74
2021/11/07 10:56:02;;;;;;;2.30;1.70;;;;;;;9.22;96.16;100374.69;5073864;28;20179;-74
2021/11/07 10:58:34;;;;;;;3.63;0.93;;;;;;;9.24;96.07;100377.94;5072570;28;20209;-74
2021/11/07 11:01:03;;;;;;;0.43;0.30;;;;;;;9.30;96.16;100381.38;5072634;28;20637;-74
2021/11/07 11:03:28;;;;;;;4.23;1.00;;;;;;;9.28;95.35;100388.25;5073404;28;20175;-74
2021/11/07 11:08:29;;;;;;;1.23;0.57;;;;;;;9.25;94.72;100395.09;5074002;28;20174;-75
2021/11/07 11:11:24;;;;;;;1.13;0.67;;;;;;;9.19;96.36;100385.41;5073619;28;20185;-74
2021/11/07 11:14:12;;;;;;;3.67;0.27;;;;;;;9.19;97.42;100386.22;5073630;28;20159;-75
2021/11/07 11:16:55;;;;;;;1.30;1.17;;;;;;;9.24;96.98;100396.19;5073816;28;20155;-75
2021/11/07 11:25:58;;;;;;;0.93;0.50;;;;;;;9.26;96.56;100388.56;5073600;28;20174;-73
2021/11/07 11:28:04;;;;;;;0.47;0.27;;;;;;;9.25;95.91;100378.72;5063862;28;20700;-74
2021/11/07 11:33:28;;;;;;;3.87;1.60;;;;;;;9.40;94.36;100372.16;5071930;28;20240;-75
2021/11/07 11:36:22;;;;;;;2.57;1.90;;;;;;;9.46;93.35;100371.75;5065950;28;20246;-75
2021/11/07 11:38:53;;;;;;;8.07;1.27;;;;;;;9.49;90.60;100379.31;5068554;28;20665;-75
2021/11/07 11:41:48;;;;;;;21.47;1.30;;;;;;;9.49;91.85;100373.88;5071677;28;20191;-75
2021/11/07 11:44:06;;;;;;;7.50;1.07;;;;;;;9.45;92.76;100364.69;5072094;28;20363;-74
2021/11/07 11:46:56;;;;;;;1.57;0.37;;;;;;;9.44;93.39;100376.72;5071313;28;20179;-75
2021/11/07 11:52:27;;;;;;;1.10;0.53;;;;;;;9.32;93.26;100361.97;5072622;28;20177;-75
2021/11/07 11:57:47;;;;;;;0.10;0.10;;;;;;;9.21;95.79;100353.19;5072504;28;20202;-75
2021/11/07 12:03:37;;;;;;;3.63;1.27;;;;;;;9.46;94.72;100357.31;5072450;28;20181;-75
2021/11/07 12:06:47;;;;;;;4.40;1.07;;;;;;;9.62;93.79;100358.59;5072576;28;20471;-75
2021/11/07 12:11:59;;;;;;;1.33;1.23;;;;;;;9.88;91.60;100358.81;5072350;28;20200;-75
2021/11/07 12:14:46;;;;;;;1.73;0.67;;;;;;;9.93;90.18;100361.41;5072051;28;20590;-75
2021/11/07 12:17:12;;;;;;;4.13;2.00;;;;;;;10.00;88.67;100353.63;5072367;28;20206;-76
2021/11/07 12:19:40;;;;;;;0.47;0.47;;;;;;;10.06;89.10;100348.84;5071059;28;20255;-75
2021/11/07 12:22:23;;;;;;;0.97;0.60;;;;;;;10.08;88.19;100346.59;5072116;28;20841;-75
2021/11/07 12:24:48;;;;;;;1.03;1.03;;;;;;;10.17;86.90;100322.09;5071617;28;20178;-75
2021/11/07 12:27:22;;;;;;;0.47;0.47;;;;;;;10.20;85.18;100343.31;5072338;28;20178;-75
2021/11/07 12:29:50;;;;;;;0.20;0.20;;;;;;;10.18;85.13;100338.16;5071921;28;20170;-76
2021/11/07 12:32:16;;;;;;;0.60;0.60;;;;;;;10.25;85.75;100332.28;5071164;28;20174;-75
2021/11/07 12:34:59;;;;;;;0.63;0.63;;;;;;;10.24;84.73;100333.41;5071215;28;20178;-76
2021/11/07 12:40:41;;;;;;;0.33;0.33;;;;;;;10.34;84.54;100346.81;5072095;28;20201;-75
2021/11/07 12:43:11;;;;;;;2.90;0.60;;;;;;;10.37;83.53;100344.25;5071461;28;20163;-75
2021/11/07 12:45:40;;;;;;;1.70;1.70;;;;;;;10.41;81.10;100349.88;5070046;28;20214;-75
2021/11/07 12:48:08;;;;;;;0.47;0.23;;;;;;;10.38;79.42;100334.94;5071754;28;20229;-75
2021/11/07 12:51:05;;;;;;;4.70;0.80;;;;;;;10.42;80.12;100343.34;5070151;28;20177;-75
2021/11/07 12:53:54;;;;;;;5.27;0.63;;;;;;;10.45;79.35;100347.38;5062731;28;20190;-75
2021/11/07 12:56:38;;;;;;;1.50;1.27;;;;;;;10.41;78.38;100348.00;5069935;28;20178;-75
2021/11/07 12:59:13;;;;;;;7.37;1.40;;;;;;;10.39;77.60;100350.19;5071575;28;20174;-75
2021/11/07 13:02:00;;;;;;;1.80;0.67;;;;;;;10.48;78.95;100357.66;5071146;28;20170;-75
2021/11/07 13:04:27;;;;;;;1.37;0.70;;;;;;;10.46;77.27;100357.97;5069483;28;20586;-75
2021/11/07 13:07:01;;;;;;;4.00;1.33;;;;;;;10.41;76.26;100349.88;5071053;28;20190;-75
2021/11/07 13:09:36;;;;;;;0.30;0.20;;;;;;;10.43;77.55;100351.22;5071083;28;20174;-76
2021/11/07 13:12:13;;;;;;;0.60;0.60;;;;;;;10.39;77.05;100336.56;5069647;28;20231;-75
2021/11/07 13:31:23;;;;;;;4.53;0.97;;;;;;;10.69;81.82;100324.00;5070692;28;20174;-75
2021/11/07 13:33:49;;;;;;;0.10;0.10;;;;;;;10.67;81.81;100330.91;5069465;28;20194;-75
2021/11/07 13:36:18;;;;;;;1.90;0.40;;;;;;;10.74;82.35;100325.81;5069736;28;20633;-75